sensor_id;sensor_type;location;lat;lon;timestamp;temperature;humidity
30572;DHT22;17348;50.948;10.696;2023-02-12T00:00:04;6.50;99.90
30572;DHT22;17348;50.948;10.696;2023-02-12T00:03:06;6.50;99.90
30572;DHT22;17348;50.948;10.696;2023-02-12T00:06:09;6.50;99.90
30572;DHT22;17348;50.948;10.696;2023-02-12T00:09:12;6.50;99.90
30572;DHT22;17348;50.948;10.696;2023-02-12T00:12:17;6.60;99.90
30572;DHT22;17348;50.948;10.696;2023-02-12T00:15:21;6.60;99.90
30572;DHT22;17348;50.948;10.696;2023-02-12T00:18:23;6.60;99.90
30572;DHT22;17348;50.948;10.696;2023-02-12T00:21:26;6.60;99.90
30572;DHT22;17348;50.948;10.696;2023-02-12T00:24:28;6.60;99.90
30572;DHT22;17348;50.948;10.696;2023-02-12T00:27:32;6.50;99.90
30572;DHT22;17348;50.948;10.696;2023-02-12T00:30:35;6.50;99.90
30572;DHT22;17348;50.948;10.696;2023-02-12T00:33:38;6.50;99.90
30572;DHT22;17348;50.948;10.696;2023-02-12T00:36:40;6.50;99.90
30572;DHT22;17348;50.948;10.696;2023-02-12T00:39:43;6.40;99.90
30572;DHT22;17348;50.948;10.696;2023-02-12T00:42:45;6.40;99.90
30572;DHT22;17348;50.948;10.696;2023-02-12T00:45:49;6.40;99.90
30572;DHT22;17348;50.948;10.696;2023-02-12T00:48:51;6.30;99.90
30572;DHT22;17348;50.948;10.696;2023-02-12T00:51:54;6.30;99.90
30572;DHT22;17348;50.948;10.696;2023-02-12T00:54:56;6.30;99.90
30572;DHT22;17348;50.948;10.696;2023-02-12T00:57:58;6.40;99.90
30572;DHT22;17348;50.948;10.696;2023-02-12T01:01:02;6.40;99.90
30572;DHT22;17348;50.948;10.696;2023-02-12T01:04:05;6.40;99.90
30572;DHT22;17348;50.948;10.696;2023-02-12T01:07:08;6.40;99.90
30572;DHT22;17348;50.948;10.696;2023-02-12T01:10:10;6.40;99.90
30572;DHT22;17348;50.948;10.696;2023-02-12T01:13:13;6.40;99.90
30572;DHT22;17348;50.948;10.696;2023-02-12T01:16:19;6.40;99.90
30572;DHT22;17348;50.948;10.696;2023-02-12T01:19:22;6.40;99.90
30572;DHT22;17348;50.948;10.696;2023-02-12T01:22:24;6.50;99.90
30572;DHT22;17348;50.948;10.696;2023-02-12T01:25:27;6.50;99.90
30572;DHT22;17348;50.948;10.696;2023-02-12T01:28:29;6.50;99.90
30572;DHT22;17348;50.948;10.696;2023-02-12T01:31:36;6.50;99.90
30572;DHT22;17348;50.948;10.696;2023-02-12T01:34:39;6.50;99.90
30572;DHT22;17348;50.948;10.696;2023-02-12T01:37:41;6.50;99.90
30572;DHT22;17348;50.948;10.696;2023-02-12T01:40:43;6.50;99.90
30572;DHT22;17348;50.948;10.696;2023-02-12T01:44:08;6.50;99.90
30572;DHT22;17348;50.948;10.696;2023-02-12T01:47:16;6.60;99.90
30572;DHT22;17348;50.948;10.696;2023-02-12T01:50:21;6.60;99.90
30572;DHT22;17348;50.948;10.696;2023-02-12T01:53:28;6.60;99.90
30572;DHT22;17348;50.948;10.696;2023-02-12T01:56:31;6.60;99.90
30572;DHT22;17348;50.948;10.696;2023-02-12T01:59:35;6.60;99.90
30572;DHT22;17348;50.948;10.696;2023-02-12T02:02:40;6.60;99.90
30572;DHT22;17348;50.948;10.696;2023-02-12T02:05:51;6.60;99.90
30572;DHT22;17348;50.948;10.696;2023-02-12T02:08:54;6.60;99.90
30572;DHT22;17348;50.948;10.696;2023-02-12T02:11:57;6.60;99.90
30572;DHT22;17348;50.948;10.696;2023-02-12T02:15:19;6.60;99.90
30572;DHT22;17348;50.948;10.696;2023-02-12T02:18:28;6.60;99.90
30572;DHT22;17348;50.948;10.696;2023-02-12T02:21:56;6.70;99.90
30572;DHT22;17348;50.948;10.696;2023-02-12T02:28:58;6.70;99.90
30572;DHT22;17348;50.948;10.696;2023-02-12T02:32:10;6.70;99.90
30572;DHT22;17348;50.948;10.696;2023-02-12T02:35:18;6.60;99.90
30572;DHT22;17348;50.948;10.696;2023-02-12T02:38:27;6.60;99.90
30572;DHT22;17348;50.948;10.696;2023-02-12T02:41:37;6.60;99.90
30572;DHT22;17348;50.948;10.696;2023-02-12T02:44:45;6.60;99.90
30572;DHT22;17348;50.948;10.696;2023-02-12T02:47:55;6.60;99.90
30572;DHT22;17348;50.948;10.696;2023-02-12T02:51:02;6.60;99.90
30572;DHT22;17348;50.948;10.696;2023-02-12T02:54:09;6.50;99.90
30572;DHT22;17348;50.948;10.696;2023-02-12T02:57:14;6.60;99.90
30572;DHT22;17348;50.948;10.696;2023-02-12T03:00:21;6.60;99.90
30572;DHT22;17348;50.948;10.696;2023-02-12T03:03:30;6.60;99.90
30572;DHT22;17348;50.948;10.696;2023-02-12T03:06:39;6.60;99.90
30572;DHT22;17348;50.948;10.696;2023-02-12T03:09:49;6.60;99.90
30572;DHT22;17348;50.948;10.696;2023-02-12T03:12:57;6.60;99.90
30572;DHT22;17348;50.948;10.696;2023-02-12T03:16:04;6.60;99.90
30572;DHT22;17348;50.948;10.696;2023-02-12T03:19:15;6.60;99.90
30572;DHT22;17348;50.948;10.696;2023-02-12T03:22:22;6.60;99.90
30572;DHT22;17348;50.948;10.696;2023-02-12T03:25:29;6.60;99.90
30572;DHT22;17348;50.948;10.696;2023-02-12T03:28:36;6.70;99.90
30572;DHT22;17348;50.948;10.696;2023-02-12T03:31:47;6.70;99.90
30572;DHT22;17348;50.948;10.696;2023-02-12T03:35:02;6.70;99.90
30572;DHT22;17348;50.948;10.696;2023-02-12T03:38:10;6.70;99.90
30572;DHT22;17348;50.948;10.696;2023-02-12T03:41:18;6.70;99.90
30572;DHT22;17348;50.948;10.696;2023-02-12T03:44:31;6.70;99.90
30572;DHT22;17348;50.948;10.696;2023-02-12T03:47:43;6.60;99.90
30572;DHT22;17348;50.948;10.696;2023-02-12T03:50:52;6.60;99.90
30572;DHT22;17348;50.948;10.696;2023-02-12T03:53:56;6.60;99.90
30572;DHT22;17348;50.948;10.696;2023-02-12T03:57:04;6.60;99.90
30572;DHT22;17348;50.948;10.696;2023-02-12T04:00:11;6.60;99.90
30572;DHT22;17348;50.948;10.696;2023-02-12T04:03:13;6.70;99.90
30572;DHT22;17348;50.948;10.696;2023-02-12T04:06:20;6.70;99.90
30572;DHT22;17348;50.948;10.696;2023-02-12T04:09:25;6.70;99.90
30572;DHT22;17348;50.948;10.696;2023-02-12T04:12:39;6.70;99.90
30572;DHT22;17348;50.948;10.696;2023-02-12T04:15:51;6.70;99.90
30572;DHT22;17348;50.948;10.696;2023-02-12T04:18:58;6.70;99.90
30572;DHT22;17348;50.948;10.696;2023-02-12T04:22:12;6.70;99.90
30572;DHT22;17348;50.948;10.696;2023-02-12T04:25:21;6.70;99.90
30572;DHT22;17348;50.948;10.696;2023-02-12T04:28:35;6.70;99.90
30572;DHT22;17348;50.948;10.696;2023-02-12T04:31:45;6.70;99.90
30572;DHT22;17348;50.948;10.696;2023-02-12T04:34:51;6.80;99.90
30572;DHT22;17348;50.948;10.696;2023-02-12T04:38:02;6.80;99.90
30572;DHT22;17348;50.948;10.696;2023-02-12T04:41:08;6.90;99.90
30572;DHT22;17348;50.948;10.696;2023-02-12T04:44:16;6.90;99.90
30572;DHT22;17348;50.948;10.696;2023-02-12T04:47:18;6.80;99.90
30572;DHT22;17348;50.948;10.696;2023-02-12T04:50:21;6.80;99.90
30572;DHT22;17348;50.948;10.696;2023-02-12T04:53:25;6.80;99.90
30572;DHT22;17348;50.948;10.696;2023-02-12T04:56:27;6.80;99.90
30572;DHT22;17348;50.948;10.696;2023-02-12T04:59:29;6.90;99.90
30572;DHT22;17348;50.948;10.696;2023-02-12T05:02:32;6.90;99.90
30572;DHT22;17348;50.948;10.696;2023-02-12T05:05:35;6.90;99.90
30572;DHT22;17348;50.948;10.696;2023-02-12T05:08:39;6.90;99.90
30572;DHT22;17348;50.948;10.696;2023-02-12T05:11:41;6.90;99.90
30572;DHT22;17348;50.948;10.696;2023-02-12T05:14:44;6.90;99.90
30572;DHT22;17348;50.948;10.696;2023-02-12T05:17:46;6.90;99.90
30572;DHT22;17348;50.948;10.696;2023-02-12T05:20:54;6.90;99.90
30572;DHT22;17348;50.948;10.696;2023-02-12T05:24:00;7.00;99.90
30572;DHT22;17348;50.948;10.696;2023-02-12T05:27:02;7.00;99.90
30572;DHT22;17348;50.948;10.696;2023-02-12T05:30:06;7.00;99.90
30572;DHT22;17348;50.948;10.696;2023-02-12T05:33:09;7.00;99.90
30572;DHT22;17348;50.948;10.696;2023-02-12T05:36:13;7.10;99.90
30572;DHT22;17348;50.948;10.696;2023-02-12T05:39:17;7.10;99.90
30572;DHT22;17348;50.948;10.696;2023-02-12T05:42:19;7.10;99.90
30572;DHT22;17348;50.948;10.696;2023-02-12T05:45:22;7.10;99.90
30572;DHT22;17348;50.948;10.696;2023-02-12T05:48:28;7.10;99.90
30572;DHT22;17348;50.948;10.696;2023-02-12T05:51:31;7.10;99.90
30572;DHT22;17348;50.948;10.696;2023-02-12T05:54:35;7.10;99.90
30572;DHT22;17348;50.948;10.696;2023-02-12T05:57:37;7.10;99.90
30572;DHT22;17348;50.948;10.696;2023-02-12T06:00:39;7.10;99.90
30572;DHT22;17348;50.948;10.696;2023-02-12T06:03:44;7.10;99.90
30572;DHT22;17348;50.948;10.696;2023-02-12T06:06:47;7.10;99.90
30572;DHT22;17348;50.948;10.696;2023-02-12T06:09:51;7.10;99.90
30572;DHT22;17348;50.948;10.696;2023-02-12T06:12:54;7.10;99.90
30572;DHT22;17348;50.948;10.696;2023-02-12T06:15:57;7.10;99.90
30572;DHT22;17348;50.948;10.696;2023-02-12T06:19:03;7.10;99.90
30572;DHT22;17348;50.948;10.696;2023-02-12T06:22:05;7.10;99.90
30572;DHT22;17348;50.948;10.696;2023-02-12T06:25:09;7.10;99.90
30572;DHT22;17348;50.948;10.696;2023-02-12T06:28:11;7.10;99.90
30572;DHT22;17348;50.948;10.696;2023-02-12T06:31:18;7.10;99.90
30572;DHT22;17348;50.948;10.696;2023-02-12T06:34:21;7.10;99.90
30572;DHT22;17348;50.948;10.696;2023-02-12T06:37:23;7.10;99.90
30572;DHT22;17348;50.948;10.696;2023-02-12T06:40:27;7.10;99.90
30572;DHT22;17348;50.948;10.696;2023-02-12T06:43:29;7.10;99.90
30572;DHT22;17348;50.948;10.696;2023-02-12T06:46:32;7.10;99.90
30572;DHT22;17348;50.948;10.696;2023-02-12T06:49:34;7.10;99.90
30572;DHT22;17348;50.948;10.696;2023-02-12T06:52:37;7.10;99.90
30572;DHT22;17348;50.948;10.696;2023-02-12T06:55:40;7.10;99.90
30572;DHT22;17348;50.948;10.696;2023-02-12T06:58:44;7.20;99.90
30572;DHT22;17348;50.948;10.696;2023-02-12T07:01:47;7.20;99.90
30572;DHT22;17348;50.948;10.696;2023-02-12T07:04:50;7.10;99.90
30572;DHT22;17348;50.948;10.696;2023-02-12T07:07:52;7.20;99.90
30572;DHT22;17348;50.948;10.696;2023-02-12T07:10:56;7.20;99.90
30572;DHT22;17348;50.948;10.696;2023-02-12T07:13:58;7.20;99.90
30572;DHT22;17348;50.948;10.696;2023-02-12T07:17:01;7.30;99.90
30572;DHT22;17348;50.948;10.696;2023-02-12T07:20:06;7.30;99.90
30572;DHT22;17348;50.948;10.696;2023-02-12T07:23:10;7.30;99.90
30572;DHT22;17348;50.948;10.696;2023-02-12T07:26:14;7.30;99.90
30572;DHT22;17348;50.948;10.696;2023-02-12T07:29:17;7.30;99.90
30572;DHT22;17348;50.948;10.696;2023-02-12T07:32:19;7.30;99.90
30572;DHT22;17348;50.948;10.696;2023-02-12T07:35:21;7.30;99.90
30572;DHT22;17348;50.948;10.696;2023-02-12T07:38:24;7.30;99.90
30572;DHT22;17348;50.948;10.696;2023-02-12T07:41:29;7.40;99.90
30572;DHT22;17348;50.948;10.696;2023-02-12T07:44:32;7.40;99.90
30572;DHT22;17348;50.948;10.696;2023-02-12T07:47:34;7.40;99.90
30572;DHT22;17348;50.948;10.696;2023-02-12T07:50:38;7.40;99.90
30572;DHT22;17348;50.948;10.696;2023-02-12T07:53:41;7.40;99.90
30572;DHT22;17348;50.948;10.696;2023-02-12T07:56:44;7.40;99.90
30572;DHT22;17348;50.948;10.696;2023-02-12T07:59:47;7.40;99.90
30572;DHT22;17348;50.948;10.696;2023-02-12T08:02:51;7.40;99.90
30572;DHT22;17348;50.948;10.696;2023-02-12T08:05:54;7.30;99.90
30572;DHT22;17348;50.948;10.696;2023-02-12T08:08:58;7.40;99.90
30572;DHT22;17348;50.948;10.696;2023-02-12T08:12:02;7.50;99.90
30572;DHT22;17348;50.948;10.696;2023-02-12T08:15:05;7.50;99.90
30572;DHT22;17348;50.948;10.696;2023-02-12T08:18:08;7.60;99.90
30572;DHT22;17348;50.948;10.696;2023-02-12T08:21:12;7.70;99.90
30572;DHT22;17348;50.948;10.696;2023-02-12T08:24:14;7.80;99.90
30572;DHT22;17348;50.948;10.696;2023-02-12T08:27:18;7.80;99.90
30572;DHT22;17348;50.948;10.696;2023-02-12T08:30:20;7.90;99.90
30572;DHT22;17348;50.948;10.696;2023-02-12T08:33:23;7.90;99.90
30572;DHT22;17348;50.948;10.696;2023-02-12T08:36:27;8.00;99.90
30572;DHT22;17348;50.948;10.696;2023-02-12T08:39:30;8.00;99.90
30572;DHT22;17348;50.948;10.696;2023-02-12T08:42:33;8.10;99.90
30572;DHT22;17348;50.948;10.696;2023-02-12T08:45:36;8.10;99.90
30572;DHT22;17348;50.948;10.696;2023-02-12T08:48:39;8.20;99.90
30572;DHT22;17348;50.948;10.696;2023-02-12T08:51:43;8.20;99.90
30572;DHT22;17348;50.948;10.696;2023-02-12T08:54:46;8.20;99.90
30572;DHT22;17348;50.948;10.696;2023-02-12T08:57:50;8.30;99.90
30572;DHT22;17348;50.948;10.696;2023-02-12T09:00:54;8.30;99.90
30572;DHT22;17348;50.948;10.696;2023-02-12T09:03:56;8.30;99.90
30572;DHT22;17348;50.948;10.696;2023-02-12T09:06:59;8.20;99.90
30572;DHT22;17348;50.948;10.696;2023-02-12T09:10:01;8.20;99.90
30572;DHT22;17348;50.948;10.696;2023-02-12T09:13:06;8.30;99.90
30572;DHT22;17348;50.948;10.696;2023-02-12T09:16:09;8.30;99.90
30572;DHT22;17348;50.948;10.696;2023-02-12T09:19:12;8.40;99.90
30572;DHT22;17348;50.948;10.696;2023-02-12T09:22:15;8.40;99.90
30572;DHT22;17348;50.948;10.696;2023-02-12T09:25:17;8.40;99.90
30572;DHT22;17348;50.948;10.696;2023-02-12T09:28:21;8.50;99.90
30572;DHT22;17348;50.948;10.696;2023-02-12T09:31:25;8.40;99.90
30572;DHT22;17348;50.948;10.696;2023-02-12T09:34:28;8.40;99.90
30572;DHT22;17348;50.948;10.696;2023-02-12T09:37:33;8.40;99.90
30572;DHT22;17348;50.948;10.696;2023-02-12T09:40:43;8.40;99.90
30572;DHT22;17348;50.948;10.696;2023-02-12T09:43:52;8.40;99.90
30572;DHT22;17348;50.948;10.696;2023-02-12T09:46:59;8.40;99.90
30572;DHT22;17348;50.948;10.696;2023-02-12T09:50:13;8.40;99.90
30572;DHT22;17348;50.948;10.696;2023-02-12T09:53:21;8.40;99.90
30572;DHT22;17348;50.948;10.696;2023-02-12T09:56:25;8.40;99.90
30572;DHT22;17348;50.948;10.696;2023-02-12T09:59:33;8.40;99.90
30572;DHT22;17348;50.948;10.696;2023-02-12T10:02:38;8.60;99.90
30572;DHT22;17348;50.948;10.696;2023-02-12T10:05:45;8.70;99.90
30572;DHT22;17348;50.948;10.696;2023-02-12T10:12:36;8.80;99.90
30572;DHT22;17348;50.948;10.696;2023-02-12T10:15:49;8.90;99.90
30572;DHT22;17348;50.948;10.696;2023-02-12T10:19:04;9.00;99.90
30572;DHT22;17348;50.948;10.696;2023-02-12T10:22:17;8.90;99.90
30572;DHT22;17348;50.948;10.696;2023-02-12T10:25:27;9.00;99.90
30572;DHT22;17348;50.948;10.696;2023-02-12T10:28:35;9.10;99.90
30572;DHT22;17348;50.948;10.696;2023-02-12T10:31:45;9.10;99.90
30572;DHT22;17348;50.948;10.696;2023-02-12T10:34:48;9.20;99.90
30572;DHT22;17348;50.948;10.696;2023-02-12T10:37:57;9.20;99.90
30572;DHT22;17348;50.948;10.696;2023-02-12T10:41:01;9.20;99.90
30572;DHT22;17348;50.948;10.696;2023-02-12T10:44:04;9.30;99.90
30572;DHT22;17348;50.948;10.696;2023-02-12T10:47:11;9.30;99.90
30572;DHT22;17348;50.948;10.696;2023-02-12T10:50:21;9.20;99.90
30572;DHT22;17348;50.948;10.696;2023-02-12T10:53:30;9.10;99.90
30572;DHT22;17348;50.948;10.696;2023-02-12T10:56:36;9.10;99.90
30572;DHT22;17348;50.948;10.696;2023-02-12T10:59:39;9.10;99.90
30572;DHT22;17348;50.948;10.696;2023-02-12T11:02:59;9.00;99.90
30572;DHT22;17348;50.948;10.696;2023-02-12T11:06:12;8.90;99.90
30572;DHT22;17348;50.948;10.696;2023-02-12T11:09:26;8.90;99.90
30572;DHT22;17348;50.948;10.696;2023-02-12T11:12:32;8.90;99.90
30572;DHT22;17348;50.948;10.696;2023-02-12T11:15:45;8.90;99.90
30572;DHT22;17348;50.948;10.696;2023-02-12T11:18:57;8.90;99.90
30572;DHT22;17348;50.948;10.696;2023-02-12T11:22:06;8.80;99.90
30572;DHT22;17348;50.948;10.696;2023-02-12T11:25:14;8.90;99.90
30572;DHT22;17348;50.948;10.696;2023-02-12T11:28:18;8.80;99.90
30572;DHT22;17348;50.948;10.696;2023-02-12T11:31:22;8.80;99.90
30572;DHT22;17348;50.948;10.696;2023-02-12T11:34:27;8.70;99.90
30572;DHT22;17348;50.948;10.696;2023-02-12T11:37:32;8.70;99.90
30572;DHT22;17348;50.948;10.696;2023-02-12T11:40:36;8.70;99.90
30572;DHT22;17348;50.948;10.696;2023-02-12T11:43:38;8.80;99.90
30572;DHT22;17348;50.948;10.696;2023-02-12T11:46:47;8.80;99.90
30572;DHT22;17348;50.948;10.696;2023-02-12T11:49:53;8.90;99.90
30572;DHT22;17348;50.948;10.696;2023-02-12T11:53:01;8.90;99.90
30572;DHT22;17348;50.948;10.696;2023-02-12T11:56:09;8.90;99.90
30572;DHT22;17348;50.948;10.696;2023-02-12T11:59:26;8.80;99.90
30572;DHT22;17348;50.948;10.696;2023-02-12T12:02:33;8.80;99.90
30572;DHT22;17348;50.948;10.696;2023-02-12T12:05:47;8.90;99.90
30572;DHT22;17348;50.948;10.696;2023-02-12T12:08:55;8.80;99.90
30572;DHT22;17348;50.948;10.696;2023-02-12T12:12:07;8.90;99.90
30572;DHT22;17348;50.948;10.696;2023-02-12T12:15:18;8.90;99.90
30572;DHT22;17348;50.948;10.696;2023-02-12T12:18:44;8.90;99.90
30572;DHT22;17348;50.948;10.696;2023-02-12T12:22:15;8.90;99.90
30572;DHT22;17348;50.948;10.696;2023-02-12T12:25:25;8.80;99.90
30572;DHT22;17348;50.948;10.696;2023-02-12T12:28:33;8.80;99.90
30572;DHT22;17348;50.948;10.696;2023-02-12T12:31:41;8.80;99.90
30572;DHT22;17348;50.948;10.696;2023-02-12T12:34:44;8.80;99.90
30572;DHT22;17348;50.948;10.696;2023-02-12T12:37:53;8.80;99.90
30572;DHT22;17348;50.948;10.696;2023-02-12T12:41:04;8.90;99.90
30572;DHT22;17348;50.948;10.696;2023-02-12T12:44:19;8.80;99.90
30572;DHT22;17348;50.948;10.696;2023-02-12T12:47:29;8.90;99.90
30572;DHT22;17348;50.948;10.696;2023-02-12T12:50:59;8.90;99.90
30572;DHT22;17348;50.948;10.696;2023-02-12T12:54:17;8.90;99.90
30572;DHT22;17348;50.948;10.696;2023-02-12T12:57:35;8.90;99.90
30572;DHT22;17348;50.948;10.696;2023-02-12T13:00:54;9.00;99.90
30572;DHT22;17348;50.948;10.696;2023-02-12T13:04:36;8.90;99.90
30572;DHT22;17348;50.948;10.696;2023-02-12T13:07:50;8.90;99.90
30572;DHT22;17348;50.948;10.696;2023-02-12T13:10:58;8.90;99.90
30572;DHT22;17348;50.948;10.696;2023-02-12T13:14:09;8.90;99.90
30572;DHT22;17348;50.948;10.696;2023-02-12T13:17:21;8.80;99.90
30572;DHT22;17348;50.948;10.696;2023-02-12T13:20:33;8.70;99.90
30572;DHT22;17348;50.948;10.696;2023-02-12T13:23:46;8.70;99.90
30572;DHT22;17348;50.948;10.696;2023-02-12T13:26:53;8.70;99.90
30572;DHT22;17348;50.948;10.696;2023-02-12T13:30:00;8.70;99.90
30572;DHT22;17348;50.948;10.696;2023-02-12T13:33:08;8.70;99.90
30572;DHT22;17348;50.948;10.696;2023-02-12T13:36:12;8.70;99.90
30572;DHT22;17348;50.948;10.696;2023-02-12T13:39:24;8.80;99.90
30572;DHT22;17348;50.948;10.696;2023-02-12T13:42:39;8.80;99.90
30572;DHT22;17348;50.948;10.696;2023-02-12T13:45:49;8.80;99.90
30572;DHT22;17348;50.948;10.696;2023-02-12T13:49:00;8.80;99.90
30572;DHT22;17348;50.948;10.696;2023-02-12T13:52:06;8.80;99.90
30572;DHT22;17348;50.948;10.696;2023-02-12T13:55:20;8.70;99.90
30572;DHT22;17348;50.948;10.696;2023-02-12T13:58:46;8.70;99.90
30572;DHT22;17348;50.948;10.696;2023-02-12T14:01:50;8.70;99.90
30572;DHT22;17348;50.948;10.696;2023-02-12T14:04:55;8.70;99.90
30572;DHT22;17348;50.948;10.696;2023-02-12T14:08:02;8.70;99.90
30572;DHT22;17348;50.948;10.696;2023-02-12T14:11:07;8.60;99.90
30572;DHT22;17348;50.948;10.696;2023-02-12T14:14:12;8.60;99.90
30572;DHT22;17348;50.948;10.696;2023-02-12T14:17:39;8.60;99.90
30572;DHT22;17348;50.948;10.696;2023-02-12T14:20:42;8.50;99.90
30572;DHT22;17348;50.948;10.696;2023-02-12T14:23:45;8.30;99.90
30572;DHT22;17348;50.948;10.696;2023-02-12T14:26:50;8.20;99.90
30572;DHT22;17348;50.948;10.696;2023-02-12T14:30:03;8.20;99.90
30572;DHT22;17348;50.948;10.696;2023-02-12T14:33:18;8.10;99.90
30572;DHT22;17348;50.948;10.696;2023-02-12T14:36:36;8.10;99.90
30572;DHT22;17348;50.948;10.696;2023-02-12T14:39:40;8.00;99.90
30572;DHT22;17348;50.948;10.696;2023-02-12T14:42:54;8.10;99.90
30572;DHT22;17348;50.948;10.696;2023-02-12T14:49:22;8.20;99.90
30572;DHT22;17348;50.948;10.696;2023-02-12T14:52:29;8.20;99.90
30572;DHT22;17348;50.948;10.696;2023-02-12T14:55:33;8.20;99.90
30572;DHT22;17348;50.948;10.696;2023-02-12T14:58:37;8.30;99.90
30572;DHT22;17348;50.948;10.696;2023-02-12T15:01:41;8.30;99.90
30572;DHT22;17348;50.948;10.696;2023-02-12T15:04:44;8.30;99.90
30572;DHT22;17348;50.948;10.696;2023-02-12T15:07:49;8.30;99.90
30572;DHT22;17348;50.948;10.696;2023-02-12T15:10:56;8.30;99.90
30572;DHT22;17348;50.948;10.696;2023-02-12T15:14:03;8.30;99.90
30572;DHT22;17348;50.948;10.696;2023-02-12T15:17:09;8.30;99.90
30572;DHT22;17348;50.948;10.696;2023-02-12T15:20:19;8.20;99.90
30572;DHT22;17348;50.948;10.696;2023-02-12T15:23:33;8.10;99.90
30572;DHT22;17348;50.948;10.696;2023-02-12T15:26:40;8.10;99.90
30572;DHT22;17348;50.948;10.696;2023-02-12T15:29:44;8.10;99.90
30572;DHT22;17348;50.948;10.696;2023-02-12T15:32:50;8.10;99.90
30572;DHT22;17348;50.948;10.696;2023-02-12T15:35:52;8.10;99.90
30572;DHT22;17348;50.948;10.696;2023-02-12T15:38:56;8.00;99.90
30572;DHT22;17348;50.948;10.696;2023-02-12T15:42:00;8.00;99.90
30572;DHT22;17348;50.948;10.696;2023-02-12T15:45:17;8.00;99.90
30572;DHT22;17348;50.948;10.696;2023-02-12T15:48:28;8.00;99.90
30572;DHT22;17348;50.948;10.696;2023-02-12T15:51:33;7.90;99.90
30572;DHT22;17348;50.948;10.696;2023-02-12T15:54:37;8.00;99.90
30572;DHT22;17348;50.948;10.696;2023-02-12T15:57:40;7.90;99.90
30572;DHT22;17348;50.948;10.696;2023-02-12T16:00:46;7.80;99.90
30572;DHT22;17348;50.948;10.696;2023-02-12T16:03:51;7.80;99.90
30572;DHT22;17348;50.948;10.696;2023-02-12T16:06:54;7.70;99.90
30572;DHT22;17348;50.948;10.696;2023-02-12T16:09:57;7.70;99.90
30572;DHT22;17348;50.948;10.696;2023-02-12T16:13:00;7.70;99.90
30572;DHT22;17348;50.948;10.696;2023-02-12T16:16:07;7.70;99.90
30572;DHT22;17348;50.948;10.696;2023-02-12T16:19:20;7.70;99.90
30572;DHT22;17348;50.948;10.696;2023-02-12T16:22:29;7.70;99.90
30572;DHT22;17348;50.948;10.696;2023-02-12T16:25:33;7.80;99.90
30572;DHT22;17348;50.948;10.696;2023-02-12T16:28:36;7.80;99.90
30572;DHT22;17348;50.948;10.696;2023-02-12T16:31:52;7.80;99.90
30572;DHT22;17348;50.948;10.696;2023-02-12T16:35:01;7.80;99.90
30572;DHT22;17348;50.948;10.696;2023-02-12T16:38:37;7.70;99.90
30572;DHT22;17348;50.948;10.696;2023-02-12T16:41:52;7.70;99.90
30572;DHT22;17348;50.948;10.696;2023-02-12T16:44:56;7.70;99.90
30572;DHT22;17348;50.948;10.696;2023-02-12T16:48:00;7.60;99.90
30572;DHT22;17348;50.948;10.696;2023-02-12T16:51:05;7.60;99.90
30572;DHT22;17348;50.948;10.696;2023-02-12T16:54:26;7.50;99.90
30572;DHT22;17348;50.948;10.696;2023-02-12T16:57:29;7.40;99.90
30572;DHT22;17348;50.948;10.696;2023-02-12T17:00:31;7.40;99.90
30572;DHT22;17348;50.948;10.696;2023-02-12T17:03:34;7.50;99.90
30572;DHT22;17348;50.948;10.696;2023-02-12T17:06:39;7.50;99.90
30572;DHT22;17348;50.948;10.696;2023-02-12T17:09:43;7.50;99.90
30572;DHT22;17348;50.948;10.696;2023-02-12T17:12:46;7.50;99.90
30572;DHT22;17348;50.948;10.696;2023-02-12T17:15:52;7.60;99.90
30572;DHT22;17348;50.948;10.696;2023-02-12T17:18:55;7.60;99.90
30572;DHT22;17348;50.948;10.696;2023-02-12T17:21:58;7.60;99.90
30572;DHT22;17348;50.948;10.696;2023-02-12T17:25:01;7.50;99.90
30572;DHT22;17348;50.948;10.696;2023-02-12T17:28:03;7.60;99.90
30572;DHT22;17348;50.948;10.696;2023-02-12T17:31:06;7.60;99.90
30572;DHT22;17348;50.948;10.696;2023-02-12T17:34:08;7.70;99.90
30572;DHT22;17348;50.948;10.696;2023-02-12T17:37:12;7.70;99.90
30572;DHT22;17348;50.948;10.696;2023-02-12T17:40:15;7.70;99.90
30572;DHT22;17348;50.948;10.696;2023-02-12T17:43:18;7.70;99.90
30572;DHT22;17348;50.948;10.696;2023-02-12T17:46:21;7.70;99.90
30572;DHT22;17348;50.948;10.696;2023-02-12T17:49:24;7.70;99.90
30572;DHT22;17348;50.948;10.696;2023-02-12T17:52:28;7.70;99.90
30572;DHT22;17348;50.948;10.696;2023-02-12T17:55:32;7.70;99.90
30572;DHT22;17348;50.948;10.696;2023-02-12T17:58:34;7.70;99.90
30572;DHT22;17348;50.948;10.696;2023-02-12T18:01:37;7.70;99.90
30572;DHT22;17348;50.948;10.696;2023-02-12T18:04:41;7.70;99.90
30572;DHT22;17348;50.948;10.696;2023-02-12T18:07:44;7.70;99.90
30572;DHT22;17348;50.948;10.696;2023-02-12T18:10:47;7.70;99.90
30572;DHT22;17348;50.948;10.696;2023-02-12T18:13:51;7.70;99.90
30572;DHT22;17348;50.948;10.696;2023-02-12T18:16:54;7.70;99.90
30572;DHT22;17348;50.948;10.696;2023-02-12T18:19:56;7.60;99.90
30572;DHT22;17348;50.948;10.696;2023-02-12T18:23:00;7.60;99.90
30572;DHT22;17348;50.948;10.696;2023-02-12T18:26:08;7.60;99.90
30572;DHT22;17348;50.948;10.696;2023-02-12T18:29:10;7.60;99.90
30572;DHT22;17348;50.948;10.696;2023-02-12T18:32:13;7.60;99.90
30572;DHT22;17348;50.948;10.696;2023-02-12T18:35:16;7.60;99.90
30572;DHT22;17348;50.948;10.696;2023-02-12T18:38:20;7.60;99.90
30572;DHT22;17348;50.948;10.696;2023-02-12T18:41:24;7.60;99.90
30572;DHT22;17348;50.948;10.696;2023-02-12T18:44:27;7.60;99.90
30572;DHT22;17348;50.948;10.696;2023-02-12T18:47:29;7.60;99.90
30572;DHT22;17348;50.948;10.696;2023-02-12T18:50:31;7.60;99.90
30572;DHT22;17348;50.948;10.696;2023-02-12T18:53:35;7.60;99.90
30572;DHT22;17348;50.948;10.696;2023-02-12T18:56:40;7.50;99.90
30572;DHT22;17348;50.948;10.696;2023-02-12T18:59:43;7.50;99.90
30572;DHT22;17348;50.948;10.696;2023-02-12T19:02:46;7.40;99.90
30572;DHT22;17348;50.948;10.696;2023-02-12T19:05:48;7.40;99.90
30572;DHT22;17348;50.948;10.696;2023-02-12T19:08:54;7.40;99.90
30572;DHT22;17348;50.948;10.696;2023-02-12T19:11:58;7.40;99.90
30572;DHT22;17348;50.948;10.696;2023-02-12T19:15:01;7.40;99.90
30572;DHT22;17348;50.948;10.696;2023-02-12T19:18:04;7.40;99.90
30572;DHT22;17348;50.948;10.696;2023-02-12T19:21:07;7.40;99.90
30572;DHT22;17348;50.948;10.696;2023-02-12T19:24:16;7.40;99.90
30572;DHT22;17348;50.948;10.696;2023-02-12T19:27:18;7.40;99.90
30572;DHT22;17348;50.948;10.696;2023-02-12T19:30:21;7.40;99.90
30572;DHT22;17348;50.948;10.696;2023-02-12T19:33:23;7.20;99.90
30572;DHT22;17348;50.948;10.696;2023-02-12T19:36:27;7.10;99.90
30572;DHT22;17348;50.948;10.696;2023-02-12T19:39:31;7.10;99.90
30572;DHT22;17348;50.948;10.696;2023-02-12T19:42:34;7.10;99.90
30572;DHT22;17348;50.948;10.696;2023-02-12T19:45:36;7.10;99.90